Terminal Aerodrome Forecast
Issued by NWS

Home | Current Version | Previous Version | Text Only | Print | Product List | Glossary On
Versions: 1 2 3 4 5 6 7 8 9 10 11 12 13 14 15 16 17 18
000
FTUS42 KFFC 180524
TAFRYY
TAF
KRYY 180524Z 1806/1906 23005KT P6SM SCT080 BKN250
      TEMPO 1806/1809 SCT010 BKN025
     FM180900 29007KT 3SM BR OVC005
     FM181500 30007KT P6SM OVC008
     FM181700 31008KT P6SM BKN025 BKN040
     FM181900 31007KT P6SM BKN040
     FM190000 31005KT P6SM FEW080 BKN250=

USA.gov is the U.S. government's official web portal to all federal, state and local government web resources and services.